Time;durP1;ratioP1;P1;durP2;ratioP2;P2;SDS_P1;SDS_P2;PMS_P1;PMS_P2;Temp;Humidity;BMP_temperature;BMP_pressure;BME280_temperature;BME280_humidity;BME280_pressure;Samples;Min_cycle;Max_cycle;Signal;HPM_P1;HPM_P2
2023/12/17 00:01:22;;;;;;;20.15;10.98;;;1.70;99.90;;;;;;493946;241;27489;-72
2023/12/17 00:03:25;;;;;;;23.95;10.00;;;1.60;99.90;;;;;;493952;241;27528;-72
2023/12/17 00:05:24;;;;;;;18.20;9.98;;;1.60;99.90;;;;;;493803;241;27485;-72
2023/12/17 00:07:25;;;;;;;21.70;12.37;;;1.70;99.90;;;;;;493360;241;27549;-71
2023/12/17 00:09:27;;;;;;;23.20;12.00;;;1.70;99.90;;;;;;493933;241;28057;-70
2023/12/17 00:11:28;;;;;;;16.50;10.13;;;1.80;99.90;;;;;;493988;241;28084;-70
2023/12/17 00:13:29;;;;;;;16.23;9.75;;;1.80;99.90;;;;;;493932;241;27455;-70
2023/12/17 00:15:30;;;;;;;22.20;11.88;;;1.80;99.90;;;;;;493445;241;27505;-70
2023/12/17 00:17:32;;;;;;;20.73;11.20;;;1.80;99.90;;;;;;493974;241;27581;-71
2023/12/17 00:19:33;;;;;;;23.48;12.30;;;1.80;99.90;;;;;;493970;241;27461;-72
2023/12/17 00:21:34;;;;;;;23.67;11.85;;;1.80;99.90;;;;;;493982;241;27584;-73
2023/12/17 00:23:35;;;;;;;19.27;10.95;;;1.80;99.90;;;;;;493853;241;27523;-72
2023/12/17 00:25:37;;;;;;;25.62;13.18;;;1.80;99.90;;;;;;493978;241;27967;-72
2023/12/17 00:27:38;;;;;;;24.08;12.45;;;1.70;99.90;;;;;;493983;241;27968;-73
2023/12/17 00:29:39;;;;;;;20.58;12.32;;;1.70;99.90;;;;;;493842;241;27591;-72
2023/12/17 00:31:40;;;;;;;18.45;9.60;;;1.60;99.90;;;;;;493882;241;27490;-72
2023/12/17 00:33:42;;;;;;;23.58;10.60;;;1.60;99.90;;;;;;493877;237;27500;-73
2023/12/17 00:35:43;;;;;;;17.67;9.05;;;1.60;99.90;;;;;;493932;241;27494;-72
2023/12/17 00:37:44;;;;;;;16.10;10.10;;;1.60;99.90;;;;;;493741;237;27493;-73
2023/12/17 00:39:45;;;;;;;16.20;10.32;;;1.50;99.90;;;;;;493971;241;27473;-73
2023/12/17 00:41:47;;;;;;;14.68;8.90;;;1.60;99.90;;;;;;493950;241;27600;-72
2023/12/17 00:43:48;;;;;;;15.13;9.00;;;1.60;99.90;;;;;;493877;241;27504;-73
2023/12/17 00:45:49;;;;;;;20.35;10.35;;;1.50;99.90;;;;;;493907;241;27985;-72
2023/12/17 00:47:50;;;;;;;16.17;9.30;;;1.50;99.90;;;;;;493928;241;27988;-73
2023/12/17 00:49:52;;;;;;;19.48;9.38;;;1.50;99.90;;;;;;493957;241;27532;-72
2023/12/17 00:51:53;;;;;;;18.05;8.80;;;1.40;99.90;;;;;;493743;241;27460;-72
2023/12/17 00:53:54;;;;;;;17.73;9.10;;;1.40;99.90;;;;;;493823;241;27498;-72
2023/12/17 00:55:55;;;;;;;17.08;9.75;;;1.50;99.90;;;;;;493844;237;27598;-72
2023/12/17 00:57:57;;;;;;;12.13;8.20;;;1.50;99.90;;;;;;493717;241;27592;-72
2023/12/17 00:59:58;;;;;;;19.87;10.00;;;1.50;99.90;;;;;;493968;241;27965;-74
2023/12/17 01:01:59;;;;;;;18.15;9.65;;;1.40;99.90;;;;;;493790;241;27470;-72
2023/12/17 01:04:00;;;;;;;24.90;10.55;;;1.40;99.90;;;;;;493741;241;27982;-73
2023/12/17 01:06:02;;;;;;;21.08;10.10;;;1.40;99.90;;;;;;493803;241;27898;-72
2023/12/17 01:08:03;;;;;;;16.05;9.52;;;1.30;99.90;;;;;;493138;236;27524;-72
2023/12/17 01:10:04;;;;;;;20.90;9.52;;;1.30;99.90;;;;;;493797;241;27538;-73
2023/12/17 01:12:06;;;;;;;12.57;9.05;;;1.30;99.90;;;;;;493657;241;27503;-73
2023/12/17 01:14:07;;;;;;;14.85;8.57;;;1.20;99.90;;;;;;493718;241;27494;-72
2023/12/17 01:16:08;;;;;;;12.77;7.97;;;1.20;99.90;;;;;;493912;241;27473;-72
2023/12/17 01:18:09;;;;;;;17.52;9.18;;;1.10;99.90;;;;;;493908;241;27589;-72
2023/12/17 01:20:11;;;;;;;16.70;9.23;;;1.10;99.90;;;;;;489857;237;27453;-73
2023/12/17 01:22:12;;;;;;;18.52;9.65;;;1.00;99.90;;;;;;485045;244;27499;-72
2023/12/17 01:24:13;;;;;;;16.95;10.30;;;1.00;99.90;;;;;;484846;244;27963;-72
2023/12/17 01:26:14;;;;;;;17.77;8.93;;;1.00;99.90;;;;;;485096;244;28087;-72
2023/12/17 01:28:16;;;;;;;23.35;10.25;;;1.00;99.90;;;;;;485066;244;28006;-72
2023/12/17 01:30:17;;;;;;;22.08;10.30;;;1.20;99.90;;;;;;484988;244;27506;-72
2023/12/17 01:32:18;;;;;;;17.98;10.10;;;1.20;99.90;;;;;;484998;244;27504;-72
2023/12/17 01:34:20;;;;;;;19.50;10.38;;;1.30;99.90;;;;;;484984;245;27599;-72
2023/12/17 01:36:21;;;;;;;24.00;12.40;;;1.30;99.90;;;;;;485126;244;27525;-73
2023/12/17 01:38:22;;;;;;;18.87;10.82;;;1.50;99.90;;;;;;485088;244;27939;-72
2023/12/17 01:40:23;;;;;;;20.73;10.98;;;1.60;99.90;;;;;;485137;244;28087;-72
2023/12/17 01:42:25;;;;;;;21.92;10.73;;;1.60;99.90;;;;;;485029;244;27497;-72
2023/12/17 01:44:26;;;;;;;21.65;9.40;;;1.50;99.90;;;;;;485151;244;27472;-72
2023/12/17 01:46:27;;;;;;;23.90;11.70;;;1.50;99.90;;;;;;485137;244;27524;-70
2023/12/17 01:48:28;;;;;;;23.55;10.00;;;1.50;99.90;;;;;;485178;244;27454;-70
2023/12/17 01:50:30;;;;;;;21.30;11.65;;;1.40;99.90;;;;;;485208;244;27505;-70
2023/12/17 01:52:31;;;;;;;16.17;9.35;;;1.30;99.90;;;;;;485108;244;27513;-70
2023/12/17 01:54:32;;;;;;;15.13;9.40;;;1.20;99.90;;;;;;485135;244;27465;-70
2023/12/17 01:56:33;;;;;;;17.52;9.45;;;1.30;99.90;;;;;;485211;243;27975;-71
2023/12/17 01:58:35;;;;;;;25.27;11.65;;;1.30;99.90;;;;;;484849;245;28001;-70
2023/12/17 02:00:36;;;;;;;21.20;10.68;;;1.30;99.90;;;;;;485199;244;27573;-70
2023/12/17 02:02:37;;;;;;;15.73;9.82;;;1.30;99.90;;;;;;485128;244;27501;-71
2023/12/17 02:04:38;;;;;;;23.02;10.80;;;1.30;99.90;;;;;;485098;244;27441;-70
2023/12/17 02:06:40;;;;;;;20.77;9.65;;;1.30;99.90;;;;;;485127;244;28055;-70
2023/12/17 02:08:41;;;;;;;19.00;10.23;;;1.30;99.90;;;;;;484956;244;28186;-72
2023/12/17 02:10:42;;;;;;;17.37;9.77;;;1.20;99.90;;;;;;484738;245;27459;-72
2023/12/17 02:12:44;;;;;;;15.75;9.23;;;1.20;99.90;;;;;;485015;245;27469;-71
2023/12/17 02:14:45;;;;;;;20.75;10.52;;;1.20;99.90;;;;;;485176;244;27489;-70
2023/12/17 02:16:46;;;;;;;13.60;8.48;;;1.20;99.90;;;;;;484992;245;27471;-70
2023/12/17 02:18:47;;;;;;;16.70;8.65;;;1.10;99.90;;;;;;485219;244;27493;-72
2023/12/17 02:20:50;;;;;;;19.33;10.45;;;1.10;99.90;;;;;;485185;244;27445;-70
2023/12/17 02:22:50;;;;;;;15.50;10.20;;;1.10;99.90;;;;;;485043;245;27485;-70
2023/12/17 02:24:51;;;;;;;17.20;9.00;;;1.20;99.90;;;;;;485050;245;28779;-70
2023/12/17 02:26:53;;;;;;;20.12;11.15;;;1.10;99.90;;;;;;485108;244;27902;-70
2023/12/17 02:28:54;;;;;;;24.05;10.02;;;1.00;99.90;;;;;;485065;244;27588;-71
2023/12/17 02:30:55;;;;;;;20.00;9.77;;;1.00;99.90;;;;;;485097;244;27508;-70
2023/12/17 02:32:56;;;;;;;20.90;9.65;;;1.00;99.90;;;;;;485038;244;27513;-70
2023/12/17 02:34:57;;;;;;;16.17;8.68;;;1.00;99.90;;;;;;485145;244;27844;-70
2023/12/17 02:36:59;;;;;;;22.30;10.50;;;1.10;99.90;;;;;;485045;244;27594;-70
2023/12/17 02:39:01;;;;;;;20.58;10.23;;;1.10;99.90;;;;;;485077;244;27497;-70
2023/12/17 02:41:01;;;;;;;18.85;9.38;;;1.10;99.90;;;;;;484990;245;27889;-70
2023/12/17 02:43:02;;;;;;;14.10;9.73;;;1.10;99.90;;;;;;485195;245;28037;-70
2023/12/17 02:45:04;;;;;;;18.65;8.68;;;1.00;99.90;;;;;;485174;245;28004;-71
2023/12/17 02:47:05;;;;;;;19.60;9.40;;;1.00;99.90;;;;;;485196;244;27613;-70
2023/12/17 02:49:06;;;;;;;15.02;9.25;;;1.00;99.90;;;;;;485185;244;27499;-70
2023/12/17 02:51:08;;;;;;;18.90;9.68;;;0.90;99.90;;;;;;485173;244;27481;-71
2023/12/17 02:53:09;;;;;;;15.90;8.63;;;0.90;99.90;;;;;;484987;244;27497;-70
2023/12/17 02:55:11;;;;;;;16.20;9.00;;;0.90;99.90;;;;;;485258;244;27367;-70
2023/12/17 02:57:12;;;;;;;20.85;10.80;;;0.90;99.90;;;;;;485197;245;27565;-70
2023/12/17 02:59:13;;;;;;;14.13;8.77;;;1.00;99.90;;;;;;485152;244;27454;-70
2023/12/17 03:01:14;;;;;;;18.90;9.18;;;0.90;99.90;;;;;;485217;244;27526;-69
2023/12/17 03:03:16;;;;;;;19.95;9.82;;;0.90;99.90;;;;;;485212;244;27868;-71
2023/12/17 03:05:17;;;;;;;23.10;9.38;;;0.90;99.90;;;;;;485062;245;27548;-70
2023/12/17 03:07:18;;;;;;;15.90;9.15;;;0.90;99.90;;;;;;485174;244;27955;-70
2023/12/17 03:09:19;;;;;;;13.75;9.00;;;0.80;99.90;;;;;;485136;244;28034;-70
2023/12/17 03:11:21;;;;;;;27.40;10.05;;;0.80;99.90;;;;;;484746;245;28153;-73
2023/12/17 03:13:22;;;;;;;17.90;9.75;;;0.80;99.90;;;;;;484893;245;27588;-71
2023/12/17 03:15:24;;;;;;;17.90;9.57;;;0.80;99.90;;;;;;485216;244;27513;-70
2023/12/17 03:17:25;;;;;;;18.67;9.32;;;0.80;99.90;;;;;;485176;245;27501;-70
2023/12/17 03:19:27;;;;;;;16.40;8.77;;;0.80;99.90;;;;;;485235;244;27984;-70
2023/12/17 03:21:28;;;;;;;23.62;9.75;;;0.90;99.90;;;;;;485167;244;27548;-71
2023/12/17 03:23:29;;;;;;;17.25;8.85;;;0.90;99.90;;;;;;485043;244;27493;-70
2023/12/17 03:25:30;;;;;;;14.05;8.27;;;0.90;99.90;;;;;;484829;244;27556;-70
2023/12/17 03:27:32;;;;;;;16.23;9.35;;;0.80;99.90;;;;;;485016;244;27538;-70
2023/12/17 03:29:33;;;;;;;15.50;8.35;;;0.80;99.90;;;;;;485230;244;27494;-70
2023/12/17 03:31:34;;;;;;;18.75;8.90;;;0.80;99.90;;;;;;485243;244;27515;-72
2023/12/17 03:33:35;;;;;;;18.65;9.18;;;0.80;99.90;;;;;;485228;244;27457;-70
2023/12/17 03:35:37;;;;;;;14.65;8.82;;;0.90;99.90;;;;;;485234;244;27513;-70
2023/12/17 03:37:38;;;;;;;18.58;9.27;;;0.90;99.90;;;;;;485193;244;28719;-70
2023/12/17 03:39:39;;;;;;;17.58;9.25;;;0.90;99.90;;;;;;485232;244;27967;-70
2023/12/17 03:41:40;;;;;;;17.98;8.93;;;0.90;99.90;;;;;;485257;244;28025;-71
2023/12/17 03:43:42;;;;;;;18.48;9.13;;;0.90;99.90;;;;;;485195;244;27457;-70
2023/12/17 03:45:43;;;;;;;18.77;10.43;;;0.90;99.90;;;;;;485259;245;27522;-70
2023/12/17 03:47:45;;;;;;;16.62;9.40;;;0.90;99.90;;;;;;485255;244;27590;-70
2023/12/17 03:49:46;;;;;;;20.17;9.68;;;0.90;99.90;;;;;;485119;244;27599;-70
2023/12/17 03:51:47;;;;;;;17.40;9.85;;;0.90;99.90;;;;;;485190;244;27494;-71
2023/12/17 03:53:48;;;;;;;14.55;8.95;;;0.90;99.90;;;;;;485134;244;27441;-71
2023/12/17 03:55:50;;;;;;;20.65;10.32;;;0.80;99.90;;;;;;485170;245;27466;-71
2023/12/17 03:57:51;;;;;;;17.67;9.98;;;0.80;99.90;;;;;;485229;244;27601;-71
2023/12/17 03:59:52;;;;;;;19.90;10.88;;;0.90;99.90;;;;;;485213;245;27441;-71
2023/12/17 04:01:53;;;;;;;25.58;10.20;;;0.90;99.90;;;;;;485190;244;27485;-71
2023/12/17 04:03:55;;;;;;;15.15;9.20;;;0.80;99.90;;;;;;485177;244;27859;-70
2023/12/17 04:05:56;;;;;;;19.33;9.93;;;0.80;99.90;;;;;;485182;245;27501;-71
2023/12/17 04:07:57;;;;;;;21.75;9.40;;;0.70;99.90;;;;;;485222;244;27568;-71
2023/12/17 04:09:58;;;;;;;20.40;10.20;;;0.70;99.90;;;;;;485181;244;27465;-70
2023/12/17 04:12:00;;;;;;;20.90;9.48;;;0.70;99.90;;;;;;485172;244;28064;-71
2023/12/17 04:14:01;;;;;;;19.40;9.38;;;0.70;99.90;;;;;;485207;244;27998;-72
2023/12/17 04:16:02;;;;;;;24.05;10.35;;;0.70;99.90;;;;;;485231;244;27542;-70
2023/12/17 04:18:03;;;;;;;16.23;9.20;;;0.70;99.90;;;;;;484885;244;27492;-74
2023/12/17 04:20:05;;;;;;;15.75;9.52;;;0.80;99.90;;;;;;485005;244;27450;-71
2023/12/17 04:22:06;;;;;;;15.88;8.35;;;0.80;99.90;;;;;;485118;244;27572;-71
2023/12/17 04:24:07;;;;;;;24.05;9.55;;;0.80;99.90;;;;;;485077;244;27541;-71
2023/12/17 04:26:09;;;;;;;17.20;9.38;;;0.80;99.90;;;;;;485187;245;27844;-71
2023/12/17 04:28:10;;;;;;;17.42;8.90;;;0.70;99.90;;;;;;485190;244;28054;-70
2023/12/17 04:30:11;;;;;;;21.17;10.80;;;0.60;99.90;;;;;;485200;244;28078;-70
2023/12/17 04:32:12;;;;;;;17.58;9.95;;;0.70;99.90;;;;;;485160;244;27481;-70
2023/12/17 04:34:13;;;;;;;19.87;8.85;;;0.70;99.90;;;;;;485139;244;27485;-71
2023/12/17 04:36:15;;;;;;;18.20;9.80;;;0.70;99.90;;;;;;485198;244;27438;-70
2023/12/17 04:38:16;;;;;;;18.60;8.88;;;0.80;99.90;;;;;;485144;245;27516;-70
2023/12/17 04:40:18;;;;;;;13.90;9.38;;;0.70;99.90;;;;;;485198;244;27501;-71
2023/12/17 04:42:18;;;;;;;14.48;8.10;;;0.70;99.90;;;;;;485197;245;28065;-71
2023/12/17 04:44:20;;;;;;;13.55;7.68;;;0.80;99.90;;;;;;485197;245;27975;-72
2023/12/17 04:46:21;;;;;;;13.45;7.55;;;0.80;99.90;;;;;;485263;244;27454;-70
2023/12/17 04:48:23;;;;;;;15.60;9.10;;;0.70;99.90;;;;;;485255;244;27564;-71
2023/12/17 04:50:24;;;;;;;13.77;8.52;;;0.70;99.90;;;;;;485196;244;27537;-71
2023/12/17 04:52:25;;;;;;;15.43;8.95;;;0.70;99.90;;;;;;485202;244;27461;-70
2023/12/17 04:54:26;;;;;;;17.08;8.35;;;0.60;99.90;;;;;;485157;245;27494;-70
2023/12/17 04:56:27;;;;;;;15.32;8.20;;;0.60;99.90;;;;;;485214;244;27574;-71
2023/12/17 04:58:28;;;;;;;29.40;9.00;;;0.60;99.90;;;;;;485234;244;27991;-71
2023/12/17 05:00:30;;;;;;;20.37;10.23;;;0.70;99.90;;;;;;485191;245;28088;-71
2023/12/17 05:02:31;;;;;;;19.05;9.82;;;0.70;99.90;;;;;;485166;244;27608;-71
2023/12/17 05:04:32;;;;;;;16.55;9.15;;;0.80;99.90;;;;;;485226;244;27585;-70
2023/12/17 05:06:33;;;;;;;20.20;8.80;;;0.80;99.90;;;;;;485243;244;27585;-71
2023/12/17 05:08:35;;;;;;;21.33;8.55;;;0.80;99.90;;;;;;485209;244;27546;-71
2023/12/17 05:10:36;;;;;;;15.60;8.80;;;0.90;99.90;;;;;;485184;244;27520;-71
2023/12/17 05:12:38;;;;;;;12.25;7.97;;;0.90;99.90;;;;;;485134;244;27463;-71
2023/12/17 05:14:38;;;;;;;18.35;9.30;;;0.90;99.90;;;;;;485181;245;27556;-70
2023/12/17 05:16:40;;;;;;;14.02;8.38;;;0.90;99.90;;;;;;485224;244;27898;-71
2023/12/17 05:18:41;;;;;;;18.98;8.60;;;1.00;99.90;;;;;;485210;245;28008;-71
2023/12/17 05:20:44;;;;;;;18.92;9.10;;;1.00;99.90;;;;;;485171;245;27506;-71
2023/12/17 05:22:44;;;;;;;15.85;9.13;;;1.00;99.90;;;;;;485086;244;27485;-70
2023/12/17 05:24:45;;;;;;;14.00;8.63;;;1.00;99.90;;;;;;484605;244;27502;-71
2023/12/17 05:26:46;;;;;;;14.30;7.87;;;1.00;99.90;;;;;;485214;244;27510;-71
2023/12/17 05:28:47;;;;;;;15.60;8.82;;;1.10;99.90;;;;;;485171;244;27441;-71
2023/12/17 05:30:49;;;;;;;15.60;9.30;;;1.00;99.90;;;;;;485136;244;28048;-71
2023/12/17 05:32:50;;;;;;;18.17;8.00;;;1.10;99.90;;;;;;485137;244;28120;-72
2023/12/17 05:34:51;;;;;;;19.55;8.45;;;1.00;99.90;;;;;;485233;244;28044;-71
2023/12/17 05:36:54;;;;;;;15.48;8.68;;;1.00;99.90;;;;;;485212;244;27528;-71
2023/12/17 05:38:55;;;;;;;12.07;7.65;;;1.10;99.90;;;;;;485146;244;28110;-71
2023/12/17 05:40:56;;;;;;;14.75;7.70;;;1.10;99.90;;;;;;485168;245;27526;-71
2023/12/17 05:42:57;;;;;;;17.35;8.05;;;1.00;99.90;;;;;;485069;244;27466;-70
2023/12/17 05:44:59;;;;;;;13.05;7.90;;;1.10;99.90;;;;;;485178;244;27489;-71
2023/12/17 05:47:00;;;;;;;15.50;8.23;;;1.10;99.90;;;;;;485176;244;27447;-71
2023/12/17 05:49:01;;;;;;;15.32;8.60;;;1.10;99.90;;;;;;485144;244;28080;-70
2023/12/17 05:51:02;;;;;;;15.95;8.88;;;1.10;99.90;;;;;;485190;245;27993;-71
2023/12/17 05:53:04;;;;;;;13.77;8.45;;;1.00;99.90;;;;;;485117;245;27920;-71
2023/12/17 05:55:05;;;;;;;12.50;7.78;;;1.00;99.90;;;;;;485148;244;27569;-71
2023/12/17 05:57:06;;;;;;;12.68;7.95;;;1.00;99.90;;;;;;485156;244;27536;-70
2023/12/17 05:59:07;;;;;;;15.65;8.95;;;0.90;99.90;;;;;;485197;245;27545;-70
2023/12/17 06:01:09;;;;;;;12.75;7.50;;;0.90;99.90;;;;;;485221;244;27482;-70
2023/12/17 06:03:10;;;;;;;13.57;8.20;;;0.90;99.90;;;;;;485111;244;27516;-70
2023/12/17 06:05:11;;;;;;;25.15;9.32;;;0.90;99.90;;;;;;485158;244;27501;-71
2023/12/17 06:07:12;;;;;;;21.52;9.73;;;0.90;99.90;;;;;;485220;244;27514;-71
2023/12/17 06:09:14;;;;;;;18.50;9.95;;;0.80;99.90;;;;;;485220;244;27942;-71
2023/12/17 06:11:18;;;;;;;25.35;11.40;;;0.70;99.90;;;;;;485214;244;28100;-71
2023/12/17 06:13:17;;;;;;;25.92;11.65;;;0.70;99.90;;;;;;484952;245;27981;-71
2023/12/17 06:15:17;;;;;;;20.52;9.88;;;0.70;99.90;;;;;;485220;245;27478;-70
2023/12/17 06:17:19;;;;;;;15.80;9.15;;;0.70;99.90;;;;;;485245;244;27577;-71
2023/12/17 06:19:20;;;;;;;20.00;9.40;;;0.70;99.90;;;;;;485234;245;27446;-71
2023/12/17 06:21:21;;;;;;;28.23;9.90;;;0.70;99.90;;;;;;485216;244;27497;-71
2023/12/17 06:23:22;;;;;;;17.08;9.52;;;0.60;99.90;;;;;;485198;244;27534;-71
2023/12/17 06:25:24;;;;;;;15.07;8.85;;;0.60;99.90;;;;;;485250;245;27453;-71
2023/12/17 06:27:29;;;;;;;19.08;8.60;;;0.60;99.90;;;;;;485221;244;27494;-70
2023/12/17 06:29:27;;;;;;;13.07;8.23;;;0.60;99.90;;;;;;484149;245;27842;-72
2023/12/17 06:31:28;;;;;;;14.73;7.87;;;0.60;99.90;;;;;;485201;245;27528;-71
2023/12/17 06:33:29;;;;;;;17.90;9.15;;;0.60;99.90;;;;;;485144;244;27493;-70
2023/12/17 06:35:31;;;;;;;14.90;8.15;;;0.70;99.90;;;;;;485207;245;28705;-70
2023/12/17 06:37:32;;;;;;;19.52;8.77;;;0.70;99.90;;;;;;484640;245;27454;-71
2023/12/17 06:39:33;;;;;;;17.87;8.70;;;0.80;99.90;;;;;;485234;244;27502;-71
2023/12/17 06:41:34;;;;;;;14.85;8.52;;;0.80;99.90;;;;;;485150;244;27483;-70
2023/12/17 06:43:39;;;;;;;13.18;8.80;;;0.80;99.90;;;;;;485182;244;27489;-70
2023/12/17 06:45:37;;;;;;;13.57;8.40;;;0.80;99.90;;;;;;485003;245;27556;-71
2023/12/17 06:47:38;;;;;;;12.80;7.80;;;0.90;99.90;;;;;;485216;244;27859;-70
2023/12/17 06:49:39;;;;;;;11.70;7.20;;;0.90;99.90;;;;;;485198;245;27971;-71
2023/12/17 06:51:41;;;;;;;15.93;8.65;;;0.90;99.90;;;;;;485140;244;28029;-70
2023/12/17 06:53:42;;;;;;;20.90;9.23;;;0.80;99.90;;;;;;485174;244;27485;-70
2023/12/17 06:55:43;;;;;;;15.43;8.35;;;0.80;99.90;;;;;;485263;244;27589;-72
2023/12/17 06:57:47;;;;;;;18.33;8.05;;;0.70;99.90;;;;;;485233;244;27566;-71
2023/12/17 06:59:46;;;;;;;15.77;8.40;;;0.70;99.90;;;;;;485053;245;27513;-70
2023/12/17 07:01:47;;;;;;;19.23;8.15;;;0.70;99.90;;;;;;485221;244;27527;-71
2023/12/17 07:03:49;;;;;;;15.40;7.90;;;0.70;99.90;;;;;;485168;245;27463;-70
2023/12/17 07:05:49;;;;;;;12.68;8.27;;;0.70;99.90;;;;;;485194;244;27500;-71
2023/12/17 07:07:51;;;;;;;18.25;7.55;;;0.70;99.90;;;;;;485201;244;27963;-71
2023/12/17 07:09:53;;;;;;;16.15;8.30;;;0.70;99.90;;;;;;485239;244;27493;-70
2023/12/17 07:11:53;;;;;;;14.50;8.32;;;0.80;99.90;;;;;;485110;245;27518;-71
2023/12/17 07:13:54;;;;;;;13.45;8.07;;;0.80;99.90;;;;;;485166;244;27452;-70
2023/12/17 07:15:56;;;;;;;13.52;7.30;;;0.80;99.90;;;;;;485192;244;27573;-70
2023/12/17 07:17:57;;;;;;;15.65;7.40;;;0.90;99.90;;;;;;485181;244;27554;-71
2023/12/17 07:19:58;;;;;;;15.88;8.27;;;0.90;99.90;;;;;;485195;244;27489;-71
2023/12/17 07:21:59;;;;;;;13.52;7.82;;;0.90;99.90;;;;;;485197;244;27521;-71
2023/12/17 07:24:02;;;;;;;14.48;7.30;;;0.90;99.90;;;;;;485048;245;28057;-71
2023/12/17 07:26:03;;;;;;;20.08;8.43;;;0.90;99.90;;;;;;485197;244;28021;-71
2023/12/17 07:28:04;;;;;;;13.30;7.32;;;0.90;99.90;;;;;;485131;244;27485;-71
2023/12/17 07:30:05;;;;;;;15.45;7.20;;;0.90;99.90;;;;;;485135;244;27497;-72
2023/12/17 07:32:07;;;;;;;11.65;7.25;;;1.00;99.90;;;;;;485208;244;27508;-71
2023/12/17 07:34:08;;;;;;;11.68;8.27;;;1.00;99.90;;;;;;485167;244;27530;-71
2023/12/17 07:36:09;;;;;;;15.23;8.65;;;1.10;99.90;;;;;;485171;244;27455;-71
2023/12/17 07:38:10;;;;;;;10.77;7.87;;;1.10;99.90;;;;;;485182;244;27564;-71
2023/12/17 07:40:12;;;;;;;14.57;7.10;;;1.20;99.90;;;;;;485210;244;27971;-71
2023/12/17 07:42:13;;;;;;;12.48;8.40;;;1.10;99.90;;;;;;484650;244;27991;-71
2023/12/17 07:44:14;;;;;;;12.98;7.90;;;1.20;99.90;;;;;;485145;244;27984;-71
2023/12/17 07:46:15;;;;;;;13.62;7.68;;;1.20;99.90;;;;;;485195;244;27443;-71
2023/12/17 07:48:17;;;;;;;16.37;7.95;;;1.20;99.90;;;;;;485239;244;27488;-71
2023/12/17 07:50:18;;;;;;;21.70;8.85;;;1.20;99.90;;;;;;485186;244;27581;-71
2023/12/17 07:52:19;;;;;;;13.57;8.20;;;1.20;99.90;;;;;;485189;244;27445;-71
2023/12/17 07:54:20;;;;;;;16.92;7.65;;;1.20;99.90;;;;;;485195;244;27651;-71
2023/12/17 07:56:22;;;;;;;16.98;8.15;;;1.20;99.90;;;;;;485259;244;27401;-72
2023/12/17 07:58:23;;;;;;;11.63;7.62;;;1.20;99.90;;;;;;485189;244;27651;-70
2023/12/17 08:00:24;;;;;;;17.40;8.85;;;1.20;99.90;;;;;;485126;244;28050;-71
2023/12/17 08:02:26;;;;;;;19.25;8.00;;;1.20;99.90;;;;;;485165;245;27913;-71
2023/12/17 08:04:27;;;;;;;12.35;7.43;;;1.20;99.90;;;;;;485127;244;28082;-71
2023/12/17 08:06:28;;;;;;;13.32;8.20;;;1.30;99.90;;;;;;485224;244;27617;-71
2023/12/17 08:08:29;;;;;;;33.92;17.58;;;1.40;99.90;;;;;;485191;244;27541;-71
2023/12/17 08:10:30;;;;;;;160.80;55.25;;;1.40;99.90;;;;;;485176;244;27592;-71
2023/12/17 08:12:32;;;;;;;169.30;57.85;;;1.50;99.90;;;;;;485102;245;27464;-70
2023/12/17 08:14:33;;;;;;;138.40;46.33;;;1.50;99.90;;;;;;485251;245;28014;-70
2023/12/17 08:16:34;;;;;;;68.50;29.15;;;1.60;99.90;;;;;;485209;244;27569;-71
2023/12/17 08:18:36;;;;;;;50.83;23.50;;;1.70;99.90;;;;;;485210;245;27466;-71
2023/12/17 08:20:37;;;;;;;49.53;20.27;;;1.70;99.90;;;;;;485157;245;27492;-71
2023/12/17 08:22:38;;;;;;;30.55;16.30;;;1.70;99.90;;;;;;485169;244;27841;-70
2023/12/17 08:24:39;;;;;;;22.85;12.00;;;1.80;99.90;;;;;;485184;245;27473;-70
2023/12/17 08:26:41;;;;;;;25.40;12.40;;;1.80;99.90;;;;;;485085;244;27617;-71
2023/12/17 08:28:42;;;;;;;45.88;17.58;;;1.80;99.90;;;;;;485171;244;27958;-71
2023/12/17 08:30:43;;;;;;;70.68;26.92;;;1.80;99.90;;;;;;485192;244;29172;-71
2023/12/17 08:32:45;;;;;;;132.87;43.17;;;1.90;99.90;;;;;;485185;244;27597;-72
2023/12/17 08:34:46;;;;;;;85.72;33.38;;;1.90;99.90;;;;;;485146;244;27509;-71
2023/12/17 08:36:47;;;;;;;78.00;33.65;;;2.00;99.90;;;;;;485202;245;27629;-71
2023/12/17 08:38:48;;;;;;;49.38;22.83;;;2.00;99.90;;;;;;489107;240;27448;-70
2023/12/17 08:40:49;;;;;;;45.35;22.23;;;2.10;99.90;;;;;;491477;242;27419;-71
2023/12/17 08:42:51;;;;;;;28.42;16.80;;;2.20;99.90;;;;;;493221;241;27439;-71
2023/12/17 08:44:52;;;;;;;29.20;14.02;;;2.20;99.90;;;;;;493270;241;27843;-72
2023/12/17 08:46:53;;;;;;;23.83;12.43;;;2.30;99.90;;;;;;493236;241;28057;-72
2023/12/17 08:48:54;;;;;;;20.02;10.73;;;2.40;99.90;;;;;;491739;242;27438;-73
2023/12/17 08:50:56;;;;;;;20.80;10.43;;;2.50;99.90;;;;;;491779;242;27454;-72
2023/12/17 08:52:57;;;;;;;20.48;10.23;;;2.60;99.90;;;;;;491752;242;27540;-72
2023/12/17 08:54:58;;;;;;;20.00;10.80;;;2.60;99.90;;;;;;491774;242;27389;-71
2023/12/17 08:57:00;;;;;;;20.62;11.10;;;2.60;99.90;;;;;;491765;242;27882;-71
2023/12/17 08:59:01;;;;;;;21.65;11.05;;;2.70;99.90;;;;;;491797;242;27890;-72
2023/12/17 09:01:02;;;;;;;18.60;11.20;;;2.80;99.90;;;;;;491788;242;27361;-71
2023/12/17 09:03:03;;;;;;;13.98;9.95;;;2.80;99.90;;;;;;486549;242;27503;-74
2023/12/17 09:05:04;;;;;;;23.52;11.10;;;2.90;99.90;;;;;;482693;246;27561;-71
2023/12/17 09:07:06;;;;;;;25.90;11.63;;;3.00;99.90;;;;;;482842;246;27393;-72
2023/12/17 09:09:07;;;;;;;19.50;11.50;;;3.00;99.90;;;;;;482608;246;27554;-71
2023/12/17 09:11:08;;;;;;;19.77;10.77;;;3.00;99.90;;;;;;482774;246;27579;-71
2023/12/17 09:13:10;;;;;;;19.73;10.38;;;3.00;99.90;;;;;;482717;246;28092;-72
2023/12/17 09:15:11;;;;;;;18.60;9.80;;;3.00;99.90;;;;;;482808;246;29814;-71
2023/12/17 09:17:12;;;;;;;17.98;8.60;;;3.10;99.90;;;;;;482886;246;27878;-72
2023/12/17 09:19:13;;;;;;;17.00;8.63;;;3.10;99.90;;;;;;482866;246;27607;-72
2023/12/17 09:21:14;;;;;;;14.95;8.15;;;3.20;99.90;;;;;;482875;246;27406;-71
2023/12/17 09:23:16;;;;;;;16.17;8.57;;;3.20;99.90;;;;;;482817;246;27591;-71
2023/12/17 09:25:17;;;;;;;14.45;7.45;;;3.30;99.90;;;;;;482879;246;27860;-72
2023/12/17 09:27:19;;;;;;;10.70;7.05;;;3.30;99.90;;;;;;482853;246;27479;-71
2023/12/17 09:29:20;;;;;;;13.25;6.82;;;3.40;99.90;;;;;;482845;246;27560;-71
2023/12/17 09:31:21;;;;;;;11.90;7.47;;;3.40;99.90;;;;;;482827;246;27516;-72
2023/12/17 09:33:23;;;;;;;16.33;6.95;;;3.50;99.90;;;;;;482796;246;27432;-70
2023/12/17 09:35:24;;;;;;;15.98;6.32;;;3.50;99.90;;;;;;482839;246;28063;-72
2023/12/17 09:37:26;;;;;;;14.27;5.55;;;3.60;99.90;;;;;;482847;246;28010;-71
2023/12/17 09:39:26;;;;;;;13.50;6.22;;;3.50;99.90;;;;;;482747;246;28137;-70
2023/12/17 09:41:27;;;;;;;15.50;7.15;;;3.60;99.90;;;;;;482876;246;27424;-72
2023/12/17 09:43:29;;;;;;;12.57;6.22;;;3.60;99.90;;;;;;482860;246;27484;-70
2023/12/17 09:45:30;;;;;;;10.75;6.07;;;3.70;99.90;;;;;;482850;246;27540;-71
2023/12/17 09:47:32;;;;;;;10.60;5.65;;;3.70;99.90;;;;;;482867;246;29108;-71
2023/12/17 09:49:32;;;;;;;16.67;6.30;;;3.80;99.90;;;;;;482868;246;27950;-70
2023/12/17 09:51:34;;;;;;;15.48;5.82;;;3.80;99.90;;;;;;482873;246;29185;-72
2023/12/17 09:53:35;;;;;;;10.23;5.47;;;3.90;99.90;;;;;;482804;246;27570;-71
2023/12/17 09:55:36;;;;;;;15.60;6.22;;;3.90;99.90;;;;;;475706;246;27502;-71
2023/12/17 09:57:37;;;;;;;10.15;5.93;;;3.90;99.90;;;;;;474609;246;27547;-71
2023/12/17 09:59:39;;;;;;;10.20;5.50;;;3.90;99.90;;;;;;484529;245;27511;-70
2023/12/17 10:01:40;;;;;;;11.38;5.85;;;4.00;99.90;;;;;;476681;249;27558;-71
2023/12/17 10:03:42;;;;;;;11.10;5.28;;;4.00;99.90;;;;;;475718;250;27536;-73
2023/12/17 10:05:43;;;;;;;12.10;5.72;;;4.10;99.90;;;;;;476707;249;27519;-71
2023/12/17 10:07:44;;;;;;;9.00;5.18;;;4.10;99.90;;;;;;475755;250;27554;-71
2023/12/17 10:09:45;;;;;;;13.65;6.07;;;4.10;99.90;;;;;;476636;249;27514;-71
2023/12/17 10:11:47;;;;;;;15.30;5.80;;;4.10;99.90;;;;;;475730;250;27479;-71
2023/12/17 10:13:49;;;;;;;10.55;4.70;;;4.10;99.90;;;;;;476696;249;27648;-72
2023/12/17 10:15:49;;;;;;;10.90;5.30;;;4.20;99.90;;;;;;478429;243;27496;-71
2023/12/17 10:17:51;;;;;;;13.45;5.65;;;4.20;99.90;;;;;;478458;248;27531;-71
2023/12/17 10:19:52;;;;;;;14.70;5.65;;;4.20;99.90;;;;;;478488;248;27605;-70
2023/12/17 10:21:53;;;;;;;11.30;5.15;;;4.30;99.90;;;;;;478503;248;27931;-71
2023/12/17 10:23:54;;;;;;;12.98;5.53;;;4.30;99.90;;;;;;478440;248;28008;-71
2023/12/17 10:25:55;;;;;;;10.98;5.12;;;4.40;99.90;;;;;;478451;248;27625;-71
2023/12/17 10:27:57;;;;;;;12.32;5.53;;;4.40;99.90;;;;;;478444;248;27531;-71